Greenbrier, Arkansas
Current Conditions -  °F | °C
As of 6:58 AM on Tuesday 21 Oct 2014 (Local Time) from KLRF Reporting Station
Clear Clear  
Wind Chill: 49°   Ceiling: Unl
Heat Index: 49°   Visibility: 10mi
Dew Point: 48°   Wind: 0mph
Humidity: 95%   Direction: NA
Pressure: 30.07"   Gusts: NA
Location:  35.23°N, 92.39°W
Report Text: KLRF 211158Z 00000KT 10SM CLR 09/09 A3007 RMK AO2A VIS 1/2 RWY07 SLP185 T00940087 10125 20091 52010
Loading
Personal Weather Stations






























Interactive Weather Map
Tropical Storm Tracking
New forecast layout! Learn more

10-Day Weather Forecast

Advertisements
Track Severe Weather on mobile